Have a Safe July 4th! 

Flight Track Log - Related Links

Times and Time Zones

All times are in EDT time to prevent confusion due to time zone crossing. See the N804 flight status page for this flight to view local times or setup timezone preferences in your user account.

Time Position Orientation Groundspeed Altitude Reporting Facility
EDT Latitude Longitude Course Direction KTS MPH feet Rate Location/Type
Sat 09:22:48 AM 40.7661 -79.6811 95° East 190 219 9,400  Level Cleveland Center
Sat 09:23:48 AM 40.7614 -79.6128 95° East 190 219 11,100 1,600 Climbing Cleveland Center
Sat 09:24:48 AM 40.7544 -79.5469 98° East 190 219 12,600 1,500 Climbing Cleveland Center
Sat 09:25:48 AM 40.7478 -79.4758 97° East 190 219 14,100 1,400 Climbing Cleveland Center
Sat 09:26:48 AM 40.7428 -79.4075 95° East 190 219 15,400 1,100 Climbing Cleveland Center
Sat 09:27:48 AM 40.7358 -79.3392 98° East 190 219 16,300 900 Climbing Cleveland Center
Sat 09:28:48 AM 40.7286 -79.2625 97° East 196 226 17,200 600 Climbing Cleveland Center
Sat 09:29:48 AM 40.7217 -79.1858 97° East 206 237 17,500 150 Climbing Cleveland Center
Sat 09:30:48 AM 40.7142 -79.1011 97° East 218 251 17,500  Level Cleveland Center
Sat 09:31:48 AM 40.7089 -79.0108 94° East 230 265 17,500  Level Cleveland Center
Sat 09:32:48 AM 40.6992 -78.9208 98° East 242 278 17,500  Level Cleveland Center
Sat 09:33:48 AM 40.6917 -78.8306 96° East 242 278 17,500  Level Cleveland Center
Sat 09:34:48 AM 40.6839 -78.7403 96° East 248 285 17,500  Level Cleveland Center
Sat 09:35:48 AM 40.6761 -78.6503 96° East 248 285 17,500 30 Level Cleveland Center
Sat 09:38:05 AM 40.6600 -78.4511 96° East 254 292 17,600 30 Climbing New York Center
Sat 09:39:05 AM 40.6514 -78.3597 97° East 254 292 17,600  Level New York Center
Sat 09:40:06 AM 40.6425 -78.2711 98° East 254 292 17,600  Level New York Center
Sat 09:41:06 AM 40.6339 -78.1772 97° East 254 292 17,600  Level New York Center
Sat 09:42:07 AM 40.6247 -78.0861 98° East 254 292 17,600  Level New York Center
Sat 09:43:06 AM 40.6178 -77.9978 96° East 254 292 17,600  Level New York Center
Sat 09:44:07 AM 40.6086 -77.9064 97° East 254 292 17,600  Level New York Center
Sat 09:45:05 AM 40.5997 -77.8125 97° East 259 298 17,600  Level New York Center
Sat 09:46:06 AM 40.5925 -77.7217 96° East 254 292 17,600  Level New York Center
Sat 09:47:07 AM 40.5792 -77.6300 101° East 254 292 17,600  Level New York Center
Sat 09:48:06 AM 40.5683 -77.5278 98° East 260 299 17,600  Level New York Center
Sat 09:49:06 AM 40.5625 -77.4481 95° East 255 293 17,600  Level New York Center
Sat 09:50:06 AM 40.5539 -77.3433 96° East 255 293 17,600  Level New York Center
Sat 09:51:05 AM 40.5439 -77.2606 99° East 255 293 17,600  Level New York Center
Sat 09:52:05 AM 40.5431 -77.1592 91° East 255 293 17,600  Level New York Center
Sat 09:53:05 AM 40.5475 -77.0778 86° East 255 293 17,600  Level New York Center
Sat 09:54:06 AM 40.5489 -76.9714 89° East 255 293 17,600  Level New York Center
Sat 09:55:06 AM 40.5531 -76.8897 86° East 255 293 17,600 -50 Level New York Center
Sat 09:56:07 AM 40.5578 -76.7972 86° East 255 293 17,500  Descending New York Center
Sat 09:57:07 AM 40.5608 -76.6964 88° East 255 293 17,600 50 Climbing New York Center
Sat 09:58:07 AM 40.5525 -76.6136 98° East 255 293 17,600  Level New York Center
Sat 09:59:08 AM 40.5367 -76.5114 101° East 255 293 17,600 -51 Level New York Center
Sat 10:00:05 AM 40.5217 -76.4308 104° East 261 300 17,500 -51 Descending New York Center
Sat 10:01:06 AM 40.5036 -76.3283 103° East 261 300 17,500  Level New York Center
Sat 10:02:06 AM 40.4892 -76.2372 102° East 256 295 17,500  Level New York Center
Sat 10:03:07 AM 40.4747 -76.1431 101° East 261 300 17,500  Level New York Center
Sat 10:04:07 AM 40.4639 -76.0606 100° East 261 300 17,500  Level New York Center
Sat 10:05:05 AM 40.4514 -75.9642 100° East 256 295 17,500 -450 Level New York Center
Sat 10:06:07 AM 40.4350 -75.8619 102° East 258 297 16,600 -950 Descending New York Center
Sat 10:07:05 AM 40.4206 -75.7628 101° East 273 314 15,600 -1,169 Descending New York Center
Sat 10:08:05 AM 40.4075 -75.6744 101° East 278 320 14,300 -1,240 Descending New York Center
Sat 10:09:06 AM 40.3972 -75.5756 98° East 278 320 13,100 -1,400 Descending New York Center
Sat 10:10:05 AM 40.3828 -75.4683 100° East 278 320 11,500 -1,550 Descending New York Center
Sat 10:11:06 AM 40.3636 -75.3689 104° East 278 320 10,000 -1,377 Descending New York Center
Sat 10:12:07 AM 40.3506 -75.2756 100° East 273 314 8,700 -1,339 Descending New York Center
Sat 10:13:07 AM 40.3392 -75.1903 100° East 262 302 7,300 -1,424 Descending New York Center
Sat 10:14:05 AM 40.3197 -75.0967 105° East 250 288 5,900 -850 Descending New York Center
Sat 10:15:07 AM 40.3036 -75.0219 106° East 244 281 5,600 -290 Descending New York Center
Sat 10:23:00 AM 40.2728 -74.8684 114° Southeast  Level FlightAware Approximate
Sat 10:30:00 AM 40.2767 -74.8135 311° West  Level Estimated
Sat 10:31:00 AM 40.2767 -74.8135 311° West  Level Estimated
Sat 10:32:00 AM 40.2767 -74.8135 311° West  Level Estimated
Sat 10:33:00 AM 40.2767 -74.8135 311° West  Level Estimated
Sat 10:34:00 AM 40.2767 -74.8135 311° West  Level Estimated
Sat 10:35:00 AM 40.2767 -74.8135 311° West  Level Estimated
Sat 10:36:00 AM 40.2767 -74.8135 311° West  Level Estimated

Login

Don't have an account? Register now (free) for customized features, flight alerts, and more!